Dennard, AR (72629)

8:53 AM CST on January 27, 2015 (GMT -0600)
Clinton | Change Station
CLOSE
Current Station
Airport
Location: Clinton,
Elevation: 515 ft
Nearby Weather Stations

Elev 515 ft 35.60 °N, 92.45 °W | Updated 18 minutes ago

Clear
Clear
34 °F
Feels Like 34 °F
N
0
Wind Variable Wind from North

Today
High -- | Low -- °F
--% Chance of Precip.
Yesterday
High -- | Low -- °F
Precip. -- in
7:14 AM 5:32 PM
First Quarter, 55% visible
Pressure 30.16 in
Visibility 5.0 miles
Clouds Clear
Dew Point 32 °F
Humidity 93%
Rainfall 0.00 in
Snow Depth Not available.
UV 1 out of 12
Pollen 5.20 out of 12
Air Quality Not available.
Flu Activity Not available.
METAR KCCA 271435Z AUTO 00000KT 5SM BR CLR 01/00 A3016 RMK AO2

More Conditions Fewer Conditions

Pressure 30.16 in
Visibility 5.0 miles
Clouds Clear
Dew Point 32 °F
Humidity 93%
Rainfall 0.00 in
Snow Depth Not available.
UV 1 out of 12
Pollen 5.20 out of 12
Air Quality Not available.
Flu Activity Not available.
METAR KCCA 271435Z AUTO 00000KT 5SM BR CLR 01/00 A3016 RMK AO2

More Conditions Fewer Conditions

10-Day Weather Forecast

Almanac

Astronomy

Jan. 27, 2015 Rise Set
Actual Time
Civil Twilight
Nautical Twilight
Astronomical Twilight
Moon
Length of Visible Light
Length of Day
Tomorrow will be .
, % of the Moon is Illuminated

Today's Extremes

State Highs State Lows

Community

WunderPhotos

Upload Photos

1,790,655 photos uploaded!

WunderBlogs® & News

Nearby

Air Quality

  Air Quality AQ Index Pollutant
Not available.

Snow Depth

Station Depth Elevation

Earthquake Activity

City Distance Mag. Time & Date
Minimum magnitude displayed is 2.5.

Coastal Water Temperatures

Place Temperature

Nearby Weather Stations